sensor_id;sensor_type;location;lat;lon;timestamp;P1;durP1;ratioP1;P2;durP2;ratioP2
9836;SDS011;4957;51.412;6.724;2022-12-10T00:01:48;43.33;;;20.90;;
9836;SDS011;4957;51.412;6.724;2022-12-10T00:04:15;48.27;;;23.00;;
9836;SDS011;4957;51.412;6.724;2022-12-10T00:06:41;46.47;;;22.90;;
9836;SDS011;4957;51.412;6.724;2022-12-10T00:09:09;48.67;;;22.77;;
9836;SDS011;4957;51.412;6.724;2022-12-10T00:11:37;51.57;;;23.00;;
9836;SDS011;4957;51.412;6.724;2022-12-10T00:14:03;43.27;;;23.20;;
9836;SDS011;4957;51.412;6.724;2022-12-10T00:16:29;43.43;;;21.50;;
9836;SDS011;4957;51.412;6.724;2022-12-10T00:18:58;42.47;;;22.13;;
9836;SDS011;4957;51.412;6.724;2022-12-10T00:21:28;42.23;;;21.10;;
9836;SDS011;4957;51.412;6.724;2022-12-10T00:23:57;52.07;;;23.70;;
9836;SDS011;4957;51.412;6.724;2022-12-10T00:26:25;50.20;;;22.90;;
9836;SDS011;4957;51.412;6.724;2022-12-10T00:28:53;46.63;;;21.07;;
9836;SDS011;4957;51.412;6.724;2022-12-10T00:31:21;44.30;;;22.37;;
9836;SDS011;4957;51.412;6.724;2022-12-10T00:33:53;47.77;;;22.33;;
9836;SDS011;4957;51.412;6.724;2022-12-10T00:36:21;49.20;;;22.43;;
9836;SDS011;4957;51.412;6.724;2022-12-10T00:38:52;43.57;;;21.20;;
9836;SDS011;4957;51.412;6.724;2022-12-10T00:41:18;49.27;;;22.93;;
9836;SDS011;4957;51.412;6.724;2022-12-10T00:43:44;47.23;;;21.50;;
9836;SDS011;4957;51.412;6.724;2022-12-10T00:46:12;42.53;;;20.57;;
9836;SDS011;4957;51.412;6.724;2022-12-10T00:48:39;41.10;;;21.23;;
9836;SDS011;4957;51.412;6.724;2022-12-10T00:51:10;44.07;;;20.80;;
9836;SDS011;4957;51.412;6.724;2022-12-10T00:53:38;44.87;;;20.93;;
9836;SDS011;4957;51.412;6.724;2022-12-10T00:56:07;44.80;;;21.93;;
9836;SDS011;4957;51.412;6.724;2022-12-10T00:58:35;44.67;;;21.63;;
9836;SDS011;4957;51.412;6.724;2022-12-10T01:01:09;45.03;;;22.37;;
9836;SDS011;4957;51.412;6.724;2022-12-10T01:03:40;38.77;;;21.13;;
9836;SDS011;4957;51.412;6.724;2022-12-10T01:06:25;46.03;;;22.20;;
9836;SDS011;4957;51.412;6.724;2022-12-10T01:08:56;44.97;;;22.77;;
9836;SDS011;4957;51.412;6.724;2022-12-10T01:11:24;49.03;;;23.40;;
9836;SDS011;4957;51.412;6.724;2022-12-10T01:13:52;49.63;;;23.30;;
9836;SDS011;4957;51.412;6.724;2022-12-10T01:16:19;49.30;;;23.07;;
9836;SDS011;4957;51.412;6.724;2022-12-10T01:18:45;43.93;;;22.20;;
9836;SDS011;4957;51.412;6.724;2022-12-10T01:21:14;51.23;;;23.73;;
9836;SDS011;4957;51.412;6.724;2022-12-10T01:23:42;46.93;;;24.07;;
9836;SDS011;4957;51.412;6.724;2022-12-10T01:26:10;49.27;;;23.50;;
9836;SDS011;4957;51.412;6.724;2022-12-10T01:28:40;43.63;;;22.43;;
9836;SDS011;4957;51.412;6.724;2022-12-10T01:31:11;50.47;;;22.83;;
9836;SDS011;4957;51.412;6.724;2022-12-10T01:33:39;51.27;;;23.70;;
9836;SDS011;4957;51.412;6.724;2022-12-10T01:36:09;48.33;;;22.70;;
9836;SDS011;4957;51.412;6.724;2022-12-10T01:38:36;45.90;;;22.70;;
9836;SDS011;4957;51.412;6.724;2022-12-10T01:41:03;46.13;;;23.30;;
9836;SDS011;4957;51.412;6.724;2022-12-10T01:43:33;44.17;;;21.13;;
9836;SDS011;4957;51.412;6.724;2022-12-10T01:46:16;37.07;;;19.17;;
9836;SDS011;4957;51.412;6.724;2022-12-10T01:48:42;50.03;;;23.40;;
9836;SDS011;4957;51.412;6.724;2022-12-10T01:51:08;43.17;;;21.10;;
9836;SDS011;4957;51.412;6.724;2022-12-10T01:53:35;38.57;;;21.07;;
9836;SDS011;4957;51.412;6.724;2022-12-10T01:56:01;45.83;;;21.50;;
9836;SDS011;4957;51.412;6.724;2022-12-10T01:58:27;39.60;;;20.03;;
9836;SDS011;4957;51.412;6.724;2022-12-10T02:00:59;48.97;;;23.00;;
9836;SDS011;4957;51.412;6.724;2022-12-10T02:06:37;46.67;;;22.13;;
9836;SDS011;4957;51.412;6.724;2022-12-10T02:09:18;44.63;;;21.23;;
9836;SDS011;4957;51.412;6.724;2022-12-10T02:12:12;46.77;;;21.43;;
9836;SDS011;4957;51.412;6.724;2022-12-10T02:15:00;49.77;;;21.57;;
9836;SDS011;4957;51.412;6.724;2022-12-10T02:20:10;34.07;;;18.23;;
9836;SDS011;4957;51.412;6.724;2022-12-10T02:31:10;45.70;;;23.03;;
9836;SDS011;4957;51.412;6.724;2022-12-10T02:33:42;52.60;;;23.83;;
9836;SDS011;4957;51.412;6.724;2022-12-10T02:36:15;47.57;;;23.67;;
9836;SDS011;4957;51.412;6.724;2022-12-10T02:38:42;48.33;;;24.57;;
9836;SDS011;4957;51.412;6.724;2022-12-10T02:41:11;47.67;;;22.63;;
9836;SDS011;4957;51.412;6.724;2022-12-10T02:43:42;50.27;;;24.23;;
9836;SDS011;4957;51.412;6.724;2022-12-10T02:46:11;51.03;;;23.80;;
9836;SDS011;4957;51.412;6.724;2022-12-10T02:48:37;51.67;;;25.10;;
9836;SDS011;4957;51.412;6.724;2022-12-10T02:51:05;56.73;;;25.83;;
9836;SDS011;4957;51.412;6.724;2022-12-10T02:53:31;54.03;;;24.57;;
9836;SDS011;4957;51.412;6.724;2022-12-10T02:58:37;49.00;;;22.37;;
9836;SDS011;4957;51.412;6.724;2022-12-10T03:03:56;46.50;;;22.10;;
9836;SDS011;4957;51.412;6.724;2022-12-10T03:06:32;46.20;;;23.63;;
9836;SDS011;4957;51.412;6.724;2022-12-10T03:09:06;49.23;;;23.20;;
9836;SDS011;4957;51.412;6.724;2022-12-10T03:11:57;37.93;;;19.57;;
9836;SDS011;4957;51.412;6.724;2022-12-10T03:14:27;51.03;;;25.40;;
9836;SDS011;4957;51.412;6.724;2022-12-10T03:16:56;41.20;;;21.20;;
9836;SDS011;4957;51.412;6.724;2022-12-10T03:19:35;48.23;;;23.57;;
9836;SDS011;4957;51.412;6.724;2022-12-10T03:22:04;47.63;;;23.70;;
9836;SDS011;4957;51.412;6.724;2022-12-10T03:24:32;44.17;;;22.33;;
9836;SDS011;4957;51.412;6.724;2022-12-10T03:27:00;49.03;;;23.23;;
9836;SDS011;4957;51.412;6.724;2022-12-10T03:29:30;44.50;;;23.00;;
9836;SDS011;4957;51.412;6.724;2022-12-10T03:32:00;46.37;;;21.40;;
9836;SDS011;4957;51.412;6.724;2022-12-10T03:34:27;55.37;;;25.70;;
9836;SDS011;4957;51.412;6.724;2022-12-10T03:36:53;44.93;;;23.17;;
9836;SDS011;4957;51.412;6.724;2022-12-10T03:39:20;45.77;;;21.70;;
9836;SDS011;4957;51.412;6.724;2022-12-10T03:41:46;54.70;;;24.20;;
9836;SDS011;4957;51.412;6.724;2022-12-10T03:44:12;52.33;;;23.97;;
9836;SDS011;4957;51.412;6.724;2022-12-10T03:46:37;44.80;;;20.10;;
9836;SDS011;4957;51.412;6.724;2022-12-10T03:49:04;49.03;;;22.40;;
9836;SDS011;4957;51.412;6.724;2022-12-10T03:51:30;42.73;;;22.60;;
9836;SDS011;4957;51.412;6.724;2022-12-10T03:53:55;48.10;;;21.50;;
9836;SDS011;4957;51.412;6.724;2022-12-10T03:56:21;51.73;;;21.83;;
9836;SDS011;4957;51.412;6.724;2022-12-10T03:58:47;43.73;;;22.83;;
9836;SDS011;4957;51.412;6.724;2022-12-10T04:01:13;40.00;;;21.17;;
9836;SDS011;4957;51.412;6.724;2022-12-10T04:03:40;42.60;;;22.33;;
9836;SDS011;4957;51.412;6.724;2022-12-10T04:06:08;46.80;;;20.17;;
9836;SDS011;4957;51.412;6.724;2022-12-10T04:08:37;42.13;;;20.70;;
9836;SDS011;4957;51.412;6.724;2022-12-10T04:11:07;39.50;;;20.90;;
9836;SDS011;4957;51.412;6.724;2022-12-10T04:13:34;39.37;;;20.60;;
9836;SDS011;4957;51.412;6.724;2022-12-10T04:16:20;44.57;;;20.57;;
9836;SDS011;4957;51.412;6.724;2022-12-10T04:19:25;40.17;;;20.93;;
9836;SDS011;4957;51.412;6.724;2022-12-10T04:21:44;39.13;;;19.03;;
9836;SDS011;4957;51.412;6.724;2022-12-10T04:24:30;40.73;;;20.97;;
9836;SDS011;4957;51.412;6.724;2022-12-10T04:29:50;41.73;;;19.43;;
9836;SDS011;4957;51.412;6.724;2022-12-10T04:32:17;45.67;;;21.33;;
9836;SDS011;4957;51.412;6.724;2022-12-10T04:34:44;38.40;;;19.33;;
9836;SDS011;4957;51.412;6.724;2022-12-10T04:37:09;39.30;;;19.93;;
9836;SDS011;4957;51.412;6.724;2022-12-10T04:39:38;42.97;;;20.43;;
9836;SDS011;4957;51.412;6.724;2022-12-10T04:42:05;42.83;;;20.00;;
9836;SDS011;4957;51.412;6.724;2022-12-10T04:44:31;40.73;;;19.77;;
9836;SDS011;4957;51.412;6.724;2022-12-10T04:46:57;35.10;;;19.50;;
9836;SDS011;4957;51.412;6.724;2022-12-10T04:49:23;42.63;;;20.20;;
9836;SDS011;4957;51.412;6.724;2022-12-10T04:51:49;39.97;;;19.37;;
9836;SDS011;4957;51.412;6.724;2022-12-10T04:54:15;37.67;;;19.77;;
9836;SDS011;4957;51.412;6.724;2022-12-10T04:56:41;42.37;;;19.30;;
9836;SDS011;4957;51.412;6.724;2022-12-10T04:59:08;33.03;;;18.07;;
9836;SDS011;4957;51.412;6.724;2022-12-10T05:01:34;39.03;;;20.77;;
9836;SDS011;4957;51.412;6.724;2022-12-10T05:04:03;36.23;;;19.27;;
9836;SDS011;4957;51.412;6.724;2022-12-10T05:06:31;40.10;;;19.47;;
9836;SDS011;4957;51.412;6.724;2022-12-10T05:08:57;32.53;;;16.77;;
9836;SDS011;4957;51.412;6.724;2022-12-10T05:11:24;35.10;;;17.60;;
9836;SDS011;4957;51.412;6.724;2022-12-10T05:13:52;34.03;;;18.43;;
9836;SDS011;4957;51.412;6.724;2022-12-10T05:16:19;35.80;;;17.50;;
9836;SDS011;4957;51.412;6.724;2022-12-10T05:18:46;39.27;;;19.13;;
9836;SDS011;4957;51.412;6.724;2022-12-10T05:21:14;37.93;;;18.50;;
9836;SDS011;4957;51.412;6.724;2022-12-10T05:23:42;30.67;;;17.13;;
9836;SDS011;4957;51.412;6.724;2022-12-10T05:26:15;34.00;;;17.43;;
9836;SDS011;4957;51.412;6.724;2022-12-10T05:28:51;36.87;;;18.13;;
9836;SDS011;4957;51.412;6.724;2022-12-10T05:31:23;33.73;;;17.07;;
9836;SDS011;4957;51.412;6.724;2022-12-10T05:33:50;30.63;;;16.17;;
9836;SDS011;4957;51.412;6.724;2022-12-10T05:36:18;32.47;;;16.13;;
9836;SDS011;4957;51.412;6.724;2022-12-10T05:38:45;34.30;;;17.97;;
9836;SDS011;4957;51.412;6.724;2022-12-10T05:41:12;29.90;;;16.13;;
9836;SDS011;4957;51.412;6.724;2022-12-10T05:43:40;35.47;;;18.07;;
9836;SDS011;4957;51.412;6.724;2022-12-10T05:46:08;41.47;;;18.43;;
9836;SDS011;4957;51.412;6.724;2022-12-10T05:48:36;32.63;;;17.30;;
9836;SDS011;4957;51.412;6.724;2022-12-10T05:51:12;36.10;;;16.90;;
9836;SDS011;4957;51.412;6.724;2022-12-10T05:53:40;38.57;;;18.53;;
9836;SDS011;4957;51.412;6.724;2022-12-10T05:56:07;43.20;;;19.77;;
9836;SDS011;4957;51.412;6.724;2022-12-10T05:58:35;41.30;;;19.73;;
9836;SDS011;4957;51.412;6.724;2022-12-10T06:01:06;45.23;;;20.43;;
9836;SDS011;4957;51.412;6.724;2022-12-10T06:03:33;43.93;;;20.57;;
9836;SDS011;4957;51.412;6.724;2022-12-10T06:05:58;44.23;;;18.93;;
9836;SDS011;4957;51.412;6.724;2022-12-10T06:08:24;39.70;;;19.13;;
9836;SDS011;4957;51.412;6.724;2022-12-10T06:10:50;41.77;;;19.63;;
9836;SDS011;4957;51.412;6.724;2022-12-10T06:13:15;37.73;;;18.90;;
9836;SDS011;4957;51.412;6.724;2022-12-10T06:15:41;41.63;;;20.70;;
9836;SDS011;4957;51.412;6.724;2022-12-10T06:18:08;42.80;;;20.67;;
9836;SDS011;4957;51.412;6.724;2022-12-10T06:20:37;44.10;;;19.57;;
9836;SDS011;4957;51.412;6.724;2022-12-10T06:23:04;39.87;;;17.67;;
9836;SDS011;4957;51.412;6.724;2022-12-10T06:25:30;31.53;;;16.07;;
9836;SDS011;4957;51.412;6.724;2022-12-10T06:27:56;40.47;;;19.53;;
9836;SDS011;4957;51.412;6.724;2022-12-10T06:30:22;39.37;;;18.73;;
9836;SDS011;4957;51.412;6.724;2022-12-10T06:32:48;45.50;;;20.83;;
9836;SDS011;4957;51.412;6.724;2022-12-10T06:35:14;46.20;;;20.87;;
9836;SDS011;4957;51.412;6.724;2022-12-10T06:37:39;43.37;;;21.00;;
9836;SDS011;4957;51.412;6.724;2022-12-10T06:40:05;36.70;;;19.10;;
9836;SDS011;4957;51.412;6.724;2022-12-10T06:42:31;44.23;;;19.93;;
9836;SDS011;4957;51.412;6.724;2022-12-10T06:44:57;53.00;;;21.43;;
9836;SDS011;4957;51.412;6.724;2022-12-10T06:47:23;49.73;;;21.80;;
9836;SDS011;4957;51.412;6.724;2022-12-10T06:49:49;62.07;;;24.10;;
9836;SDS011;4957;51.412;6.724;2022-12-10T06:52:15;54.50;;;25.00;;
9836;SDS011;4957;51.412;6.724;2022-12-10T06:54:41;51.20;;;21.50;;
9836;SDS011;4957;51.412;6.724;2022-12-10T06:57:07;55.20;;;21.30;;
9836;SDS011;4957;51.412;6.724;2022-12-10T06:59:32;61.47;;;25.83;;
9836;SDS011;4957;51.412;6.724;2022-12-10T07:01:58;58.47;;;24.33;;
9836;SDS011;4957;51.412;6.724;2022-12-10T07:04:24;54.73;;;22.57;;
9836;SDS011;4957;51.412;6.724;2022-12-10T07:06:50;68.40;;;26.97;;
9836;SDS011;4957;51.412;6.724;2022-12-10T07:09:15;58.23;;;25.80;;
9836;SDS011;4957;51.412;6.724;2022-12-10T07:11:41;71.00;;;27.30;;
9836;SDS011;4957;51.412;6.724;2022-12-10T07:14:07;67.90;;;25.83;;
9836;SDS011;4957;51.412;6.724;2022-12-10T07:16:38;69.30;;;28.27;;
9836;SDS011;4957;51.412;6.724;2022-12-10T07:19:04;61.43;;;26.10;;
9836;SDS011;4957;51.412;6.724;2022-12-10T07:21:31;74.17;;;27.73;;
9836;SDS011;4957;51.412;6.724;2022-12-10T07:24:06;81.83;;;27.40;;
9836;SDS011;4957;51.412;6.724;2022-12-10T07:26:36;66.63;;;26.03;;
9836;SDS011;4957;51.412;6.724;2022-12-10T07:29:03;64.67;;;25.47;;
9836;SDS011;4957;51.412;6.724;2022-12-10T07:31:30;70.27;;;27.07;;
9836;SDS011;4957;51.412;6.724;2022-12-10T07:33:57;74.63;;;28.77;;
9836;SDS011;4957;51.412;6.724;2022-12-10T07:36:23;82.00;;;28.37;;
9836;SDS011;4957;51.412;6.724;2022-12-10T07:38:50;90.00;;;29.40;;
9836;SDS011;4957;51.412;6.724;2022-12-10T07:41:17;69.53;;;28.33;;
9836;SDS011;4957;51.412;6.724;2022-12-10T07:43:44;68.10;;;25.97;;
9836;SDS011;4957;51.412;6.724;2022-12-10T07:48:38;82.03;;;28.60;;
9836;SDS011;4957;51.412;6.724;2022-12-10T07:51:05;72.10;;;27.13;;
9836;SDS011;4957;51.412;6.724;2022-12-10T07:53:31;79.13;;;29.97;;
9836;SDS011;4957;51.412;6.724;2022-12-10T07:55:57;71.37;;;26.43;;
9836;SDS011;4957;51.412;6.724;2022-12-10T07:58:23;69.90;;;27.17;;
9836;SDS011;4957;51.412;6.724;2022-12-10T08:00:49;66.73;;;26.40;;
9836;SDS011;4957;51.412;6.724;2022-12-10T08:03:15;72.90;;;28.47;;
9836;SDS011;4957;51.412;6.724;2022-12-10T08:05:41;68.20;;;28.50;;
9836;SDS011;4957;51.412;6.724;2022-12-10T08:08:07;72.17;;;28.03;;
9836;SDS011;4957;51.412;6.724;2022-12-10T08:10:36;76.77;;;30.47;;
9836;SDS011;4957;51.412;6.724;2022-12-10T08:13:02;75.87;;;28.43;;
9836;SDS011;4957;51.412;6.724;2022-12-10T08:15:29;71.03;;;30.00;;
9836;SDS011;4957;51.412;6.724;2022-12-10T08:17:55;69.53;;;27.47;;
9836;SDS011;4957;51.412;6.724;2022-12-10T08:20:21;65.60;;;26.90;;
9836;SDS011;4957;51.412;6.724;2022-12-10T08:22:48;66.23;;;27.70;;
9836;SDS011;4957;51.412;6.724;2022-12-10T08:25:14;68.53;;;27.80;;
9836;SDS011;4957;51.412;6.724;2022-12-10T08:27:39;69.67;;;27.83;;
9836;SDS011;4957;51.412;6.724;2022-12-10T08:30:05;70.77;;;26.77;;
9836;SDS011;4957;51.412;6.724;2022-12-10T08:32:32;66.97;;;27.83;;
9836;SDS011;4957;51.412;6.724;2022-12-10T08:34:57;78.30;;;30.97;;
9836;SDS011;4957;51.412;6.724;2022-12-10T08:37:23;79.00;;;30.03;;
9836;SDS011;4957;51.412;6.724;2022-12-10T08:39:49;71.90;;;27.60;;
9836;SDS011;4957;51.412;6.724;2022-12-10T08:42:14;73.53;;;26.30;;
9836;SDS011;4957;51.412;6.724;2022-12-10T08:44:40;74.93;;;28.33;;
9836;SDS011;4957;51.412;6.724;2022-12-10T08:47:06;74.77;;;29.10;;
9836;SDS011;4957;51.412;6.724;2022-12-10T08:49:32;77.17;;;28.40;;
9836;SDS011;4957;51.412;6.724;2022-12-10T08:51:57;69.07;;;27.73;;
9836;SDS011;4957;51.412;6.724;2022-12-10T08:54:23;75.87;;;27.27;;
9836;SDS011;4957;51.412;6.724;2022-12-10T08:56:49;72.43;;;27.93;;
9836;SDS011;4957;51.412;6.724;2022-12-10T08:59:15;73.13;;;27.20;;
9836;SDS011;4957;51.412;6.724;2022-12-10T09:01:40;71.77;;;27.47;;
9836;SDS011;4957;51.412;6.724;2022-12-10T09:04:06;78.50;;;29.03;;
9836;SDS011;4957;51.412;6.724;2022-12-10T09:06:32;75.83;;;29.47;;
9836;SDS011;4957;51.412;6.724;2022-12-10T09:08:58;75.20;;;28.87;;
9836;SDS011;4957;51.412;6.724;2022-12-10T09:11:26;80.70;;;30.33;;
9836;SDS011;4957;51.412;6.724;2022-12-10T09:13:54;79.30;;;29.77;;
9836;SDS011;4957;51.412;6.724;2022-12-10T09:16:20;75.60;;;29.23;;
9836;SDS011;4957;51.412;6.724;2022-12-10T09:18:46;78.67;;;31.17;;
9836;SDS011;4957;51.412;6.724;2022-12-10T09:21:13;80.47;;;30.03;;
9836;SDS011;4957;51.412;6.724;2022-12-10T09:23:41;83.40;;;31.63;;
9836;SDS011;4957;51.412;6.724;2022-12-10T09:26:08;74.73;;;29.80;;
9836;SDS011;4957;51.412;6.724;2022-12-10T09:28:36;70.10;;;28.97;;
9836;SDS011;4957;51.412;6.724;2022-12-10T09:31:04;76.53;;;29.10;;
9836;SDS011;4957;51.412;6.724;2022-12-10T09:33:38;76.83;;;29.77;;
9836;SDS011;4957;51.412;6.724;2022-12-10T09:36:08;73.87;;;28.00;;
9836;SDS011;4957;51.412;6.724;2022-12-10T09:38:35;71.47;;;29.53;;
9836;SDS011;4957;51.412;6.724;2022-12-10T09:41:13;72.30;;;27.83;;
9836;SDS011;4957;51.412;6.724;2022-12-10T09:47:00;79.23;;;28.47;;
9836;SDS011;4957;51.412;6.724;2022-12-10T09:51:59;79.83;;;27.83;;
9836;SDS011;4957;51.412;6.724;2022-12-10T09:54:34;61.90;;;24.63;;
9836;SDS011;4957;51.412;6.724;2022-12-10T09:57:18;62.23;;;23.73;;
9836;SDS011;4957;51.412;6.724;2022-12-10T09:59:48;60.70;;;24.93;;
9836;SDS011;4957;51.412;6.724;2022-12-10T10:04:46;61.40;;;27.30;;
9836;SDS011;4957;51.412;6.724;2022-12-10T10:07:19;64.30;;;27.07;;
9836;SDS011;4957;51.412;6.724;2022-12-10T10:09:48;59.27;;;24.07;;
9836;SDS011;4957;51.412;6.724;2022-12-10T10:12:15;58.00;;;25.90;;
9836;SDS011;4957;51.412;6.724;2022-12-10T10:14:44;64.33;;;26.47;;
9836;SDS011;4957;51.412;6.724;2022-12-10T10:17:43;52.10;;;24.00;;
9836;SDS011;4957;51.412;6.724;2022-12-10T10:20:03;62.47;;;24.20;;
9836;SDS011;4957;51.412;6.724;2022-12-10T10:22:29;55.67;;;24.07;;
9836;SDS011;4957;51.412;6.724;2022-12-10T10:24:56;57.50;;;24.80;;
9836;SDS011;4957;51.412;6.724;2022-12-10T10:27:26;59.70;;;25.97;;
9836;SDS011;4957;51.412;6.724;2022-12-10T10:29:56;54.97;;;22.67;;
9836;SDS011;4957;51.412;6.724;2022-12-10T10:32:25;52.63;;;24.47;;
9836;SDS011;4957;51.412;6.724;2022-12-10T10:35:22;50.90;;;23.30;;
9836;SDS011;4957;51.412;6.724;2022-12-10T10:37:51;53.00;;;24.37;;
9836;SDS011;4957;51.412;6.724;2022-12-10T10:40:27;43.60;;;21.73;;
9836;SDS011;4957;51.412;6.724;2022-12-10T10:42:57;49.13;;;20.97;;
9836;SDS011;4957;51.412;6.724;2022-12-10T10:45:31;51.33;;;22.23;;
9836;SDS011;4957;51.412;6.724;2022-12-10T10:48:11;49.67;;;22.53;;
9836;SDS011;4957;51.412;6.724;2022-12-10T10:50:46;52.37;;;22.40;;
9836;SDS011;4957;51.412;6.724;2022-12-10T10:53:28;50.53;;;23.67;;
9836;SDS011;4957;51.412;6.724;2022-12-10T10:56:12;49.47;;;21.97;;
9836;SDS011;4957;51.412;6.724;2022-12-10T10:59:02;54.00;;;23.47;;
9836;SDS011;4957;51.412;6.724;2022-12-10T11:01:54;51.70;;;22.33;;
9836;SDS011;4957;51.412;6.724;2022-12-10T11:07:32;54.93;;;24.73;;
9836;SDS011;4957;51.412;6.724;2022-12-10T11:10:00;56.93;;;23.70;;
9836;SDS011;4957;51.412;6.724;2022-12-10T11:12:33;55.67;;;24.03;;
9836;SDS011;4957;51.412;6.724;2022-12-10T11:14:59;53.67;;;24.93;;
9836;SDS011;4957;51.412;6.724;2022-12-10T11:17:26;55.80;;;24.30;;
9836;SDS011;4957;51.412;6.724;2022-12-10T11:19:59;61.47;;;25.33;;
9836;SDS011;4957;51.412;6.724;2022-12-10T11:22:59;63.53;;;27.00;;
9836;SDS011;4957;51.412;6.724;2022-12-10T11:25:48;60.77;;;24.50;;
9836;SDS011;4957;51.412;6.724;2022-12-10T11:28:39;55.13;;;23.77;;
9836;SDS011;4957;51.412;6.724;2022-12-10T11:47:54;86.73;;;36.17;;
9836;SDS011;4957;51.412;6.724;2022-12-10T11:50:34;69.97;;;28.70;;
9836;SDS011;4957;51.412;6.724;2022-12-10T12:01:52;62.83;;;27.10;;
9836;SDS011;4957;51.412;6.724;2022-12-10T12:13:22;65.73;;;28.23;;
9836;SDS011;4957;51.412;6.724;2022-12-10T12:16:10;72.00;;;29.77;;
9836;SDS011;4957;51.412;6.724;2022-12-10T12:18:42;62.83;;;27.90;;
9836;SDS011;4957;51.412;6.724;2022-12-10T12:21:15;62.03;;;27.67;;
9836;SDS011;4957;51.412;6.724;2022-12-10T12:27:06;64.83;;;27.53;;
9836;SDS011;4957;51.412;6.724;2022-12-10T12:30:27;70.60;;;29.73;;
9836;SDS011;4957;51.412;6.724;2022-12-10T12:35:06;63.50;;;29.33;;
9836;SDS011;4957;51.412;6.724;2022-12-10T12:38:01;62.30;;;29.10;;
9836;SDS011;4957;51.412;6.724;2022-12-10T12:40:41;73.63;;;30.93;;
9836;SDS011;4957;51.412;6.724;2022-12-10T12:43:14;69.47;;;28.83;;
9836;SDS011;4957;51.412;6.724;2022-12-10T12:45:46;66.83;;;28.10;;
9836;SDS011;4957;51.412;6.724;2022-12-10T12:50:47;66.30;;;29.33;;
9836;SDS011;4957;51.412;6.724;2022-12-10T12:53:19;65.27;;;27.30;;
9836;SDS011;4957;51.412;6.724;2022-12-10T12:56:04;68.93;;;29.70;;
9836;SDS011;4957;51.412;6.724;2022-12-10T12:58:42;71.17;;;29.43;;
9836;SDS011;4957;51.412;6.724;2022-12-10T13:01:26;72.33;;;31.17;;
9836;SDS011;4957;51.412;6.724;2022-12-10T13:04:06;75.57;;;30.63;;
9836;SDS011;4957;51.412;6.724;2022-12-10T13:06:36;72.87;;;31.40;;
9836;SDS011;4957;51.412;6.724;2022-12-10T13:12:16;69.30;;;28.03;;
9836;SDS011;4957;51.412;6.724;2022-12-10T13:14:30;68.20;;;27.87;;
9836;SDS011;4957;51.412;6.724;2022-12-10T13:17:00;69.37;;;27.23;;
9836;SDS011;4957;51.412;6.724;2022-12-10T13:19:46;66.33;;;28.67;;
9836;SDS011;4957;51.412;6.724;2022-12-10T13:25:19;55.87;;;24.03;;
9836;SDS011;4957;51.412;6.724;2022-12-10T13:28:49;62.77;;;25.80;;
9836;SDS011;4957;51.412;6.724;2022-12-10T13:36:27;76.10;;;29.97;;
9836;SDS011;4957;51.412;6.724;2022-12-10T13:41:34;69.20;;;29.67;;
9836;SDS011;4957;51.412;6.724;2022-12-10T13:44:36;61.83;;;26.70;;
9836;SDS011;4957;51.412;6.724;2022-12-10T13:52:26;69.30;;;28.83;;
9836;SDS011;4957;51.412;6.724;2022-12-10T14:00:34;65.53;;;29.40;;
9836;SDS011;4957;51.412;6.724;2022-12-10T14:06:13;63.63;;;29.57;;
9836;SDS011;4957;51.412;6.724;2022-12-10T14:11:32;66.03;;;28.27;;
9836;SDS011;4957;51.412;6.724;2022-12-10T14:14:02;67.40;;;26.43;;
9836;SDS011;4957;51.412;6.724;2022-12-10T14:16:32;65.47;;;29.53;;
9836;SDS011;4957;51.412;6.724;2022-12-10T14:19:03;68.70;;;29.07;;
9836;SDS011;4957;51.412;6.724;2022-12-10T14:21:32;59.33;;;26.53;;
9836;SDS011;4957;51.412;6.724;2022-12-10T14:24:04;61.23;;;26.30;;
9836;SDS011;4957;51.412;6.724;2022-12-10T14:26:33;67.30;;;27.70;;
9836;SDS011;4957;51.412;6.724;2022-12-10T14:31:34;66.83;;;28.47;;
9836;SDS011;4957;51.412;6.724;2022-12-10T14:34:06;60.00;;;28.43;;
9836;SDS011;4957;51.412;6.724;2022-12-10T14:36:34;62.37;;;28.00;;
9836;SDS011;4957;51.412;6.724;2022-12-10T14:39:13;60.80;;;25.83;;
9836;SDS011;4957;51.412;6.724;2022-12-10T14:41:41;62.73;;;27.10;;
9836;SDS011;4957;51.412;6.724;2022-12-10T14:44:08;55.90;;;24.67;;
9836;SDS011;4957;51.412;6.724;2022-12-10T14:46:38;60.47;;;26.40;;
9836;SDS011;4957;51.412;6.724;2022-12-10T14:49:04;67.97;;;25.63;;
9836;SDS011;4957;51.412;6.724;2022-12-10T14:51:33;63.63;;;26.80;;
9836;SDS011;4957;51.412;6.724;2022-12-10T14:54:02;59.13;;;24.70;;
9836;SDS011;4957;51.412;6.724;2022-12-10T14:56:37;59.10;;;24.07;;
9836;SDS011;4957;51.412;6.724;2022-12-10T14:59:19;56.60;;;22.70;;
9836;SDS011;4957;51.412;6.724;2022-12-10T15:01:49;55.97;;;23.33;;
9836;SDS011;4957;51.412;6.724;2022-12-10T15:04:21;63.93;;;27.10;;
9836;SDS011;4957;51.412;6.724;2022-12-10T15:06:49;62.23;;;24.57;;
9836;SDS011;4957;51.412;6.724;2022-12-10T15:09:16;62.33;;;26.10;;
9836;SDS011;4957;51.412;6.724;2022-12-10T15:11:51;67.17;;;28.33;;
9836;SDS011;4957;51.412;6.724;2022-12-10T15:14:18;68.30;;;26.90;;
9836;SDS011;4957;51.412;6.724;2022-12-10T15:16:46;64.47;;;26.00;;
9836;SDS011;4957;51.412;6.724;2022-12-10T15:19:18;64.40;;;24.57;;
9836;SDS011;4957;51.412;6.724;2022-12-10T15:21:45;71.50;;;28.13;;
9836;SDS011;4957;51.412;6.724;2022-12-10T15:24:25;68.83;;;26.53;;
9836;SDS011;4957;51.412;6.724;2022-12-10T15:26:52;62.07;;;27.17;;
9836;SDS011;4957;51.412;6.724;2022-12-10T15:31:54;65.40;;;26.77;;
9836;SDS011;4957;51.412;6.724;2022-12-10T15:34:24;67.67;;;27.37;;
9836;SDS011;4957;51.412;6.724;2022-12-10T15:36:55;64.20;;;26.90;;
9836;SDS011;4957;51.412;6.724;2022-12-10T15:41:55;67.30;;;26.53;;
9836;SDS011;4957;51.412;6.724;2022-12-10T15:46:51;73.03;;;28.47;;
9836;SDS011;4957;51.412;6.724;2022-12-10T15:49:27;64.57;;;26.93;;
9836;SDS011;4957;51.412;6.724;2022-12-10T15:51:53;62.33;;;25.60;;
9836;SDS011;4957;51.412;6.724;2022-12-10T15:54:20;62.67;;;26.30;;
9836;SDS011;4957;51.412;6.724;2022-12-10T15:56:46;65.03;;;24.57;;
9836;SDS011;4957;51.412;6.724;2022-12-10T15:59:11;73.90;;;27.53;;
9836;SDS011;4957;51.412;6.724;2022-12-10T16:01:37;72.70;;;26.87;;
9836;SDS011;4957;51.412;6.724;2022-12-10T16:04:03;76.53;;;28.87;;
9836;SDS011;4957;51.412;6.724;2022-12-10T16:06:28;67.80;;;25.90;;
9836;SDS011;4957;51.412;6.724;2022-12-10T16:08:55;78.17;;;29.07;;
9836;SDS011;4957;51.412;6.724;2022-12-10T16:11:21;66.47;;;26.73;;
9836;SDS011;4957;51.412;6.724;2022-12-10T16:13:48;68.40;;;26.33;;
9836;SDS011;4957;51.412;6.724;2022-12-10T16:16:17;64.13;;;25.13;;
9836;SDS011;4957;51.412;6.724;2022-12-10T16:18:43;71.47;;;27.57;;
9836;SDS011;4957;51.412;6.724;2022-12-10T16:21:09;69.70;;;28.17;;
9836;SDS011;4957;51.412;6.724;2022-12-10T16:23:35;76.77;;;27.87;;
9836;SDS011;4957;51.412;6.724;2022-12-10T16:26:02;76.73;;;28.57;;
9836;SDS011;4957;51.412;6.724;2022-12-10T16:28:45;68.30;;;26.70;;
9836;SDS011;4957;51.412;6.724;2022-12-10T16:31:12;68.40;;;25.87;;
9836;SDS011;4957;51.412;6.724;2022-12-10T16:33:41;77.67;;;27.57;;
9836;SDS011;4957;51.412;6.724;2022-12-10T16:36:07;75.90;;;29.27;;
9836;SDS011;4957;51.412;6.724;2022-12-10T16:38:34;74.77;;;28.47;;
9836;SDS011;4957;51.412;6.724;2022-12-10T16:40:59;68.07;;;24.93;;
9836;SDS011;4957;51.412;6.724;2022-12-10T16:43:27;67.47;;;25.63;;
9836;SDS011;4957;51.412;6.724;2022-12-10T16:45:54;67.97;;;25.40;;
9836;SDS011;4957;51.412;6.724;2022-12-10T16:48:20;73.23;;;27.03;;
9836;SDS011;4957;51.412;6.724;2022-12-10T16:50:46;69.77;;;27.70;;
9836;SDS011;4957;51.412;6.724;2022-12-10T16:55:42;61.10;;;24.67;;
9836;SDS011;4957;51.412;6.724;2022-12-10T16:58:11;64.63;;;25.37;;
9836;SDS011;4957;51.412;6.724;2022-12-10T17:00:42;59.83;;;24.33;;
9836;SDS011;4957;51.412;6.724;2022-12-10T17:03:13;60.20;;;24.47;;
9836;SDS011;4957;51.412;6.724;2022-12-10T17:06:22;58.53;;;22.60;;
9836;SDS011;4957;51.412;6.724;2022-12-10T17:08:41;67.97;;;24.47;;